Time;durP1;ratioP1;P1;durP2;ratioP2;P2;SDS_P1;SDS_P2;PMS_P1;PMS_P2;Temp;Humidity;BMP_temperature;BMP_pressure;BME280_temperature;BME280_humidity;BME280_pressure;Samples;Min_cycle;Max_cycle;Signal;HPM_P1;HPM_P2
2022/05/22 00:00:59;;;;;;;8.18;5.75;;;13.60;99.90;;;;;;2096190;28;20035;-70
2022/05/22 00:02:00;;;;;;;8.43;5.78;;;13.60;99.90;;;;;;2096857;28;20025;-71
2022/05/22 00:03:01;;;;;;;8.15;6.03;;;13.60;99.90;;;;;;2096911;28;20021;-70
2022/05/22 00:04:01;;;;;;;8.40;5.70;;;13.60;99.90;;;;;;2096178;28;20032;-71
2022/05/22 00:05:02;;;;;;;8.32;5.95;;;13.60;99.90;;;;;;2096220;28;20076;-71
2022/05/22 00:06:03;;;;;;;8.50;5.97;;;13.50;99.90;;;;;;2096762;28;20028;-72
2022/05/22 00:07:05;;;;;;;8.63;6.25;;;13.50;99.90;;;;;;2096587;28;20136;-70
2022/05/22 00:08:06;;;;;;;7.65;5.60;;;13.50;99.90;;;;;;2096643;28;20089;-71
2022/05/22 00:09:07;;;;;;;8.27;5.70;;;13.50;99.90;;;;;;2097027;28;20024;-71
2022/05/22 00:10:08;;;;;;;9.48;6.15;;;13.50;99.90;;;;;;2096738;28;20013;-71
2022/05/22 00:11:08;;;;;;;7.65;5.93;;;13.50;99.90;;;;;;2096871;28;20039;-71
2022/05/22 00:12:10;;;;;;;8.93;5.80;;;13.50;99.90;;;;;;2097009;28;20103;-71
2022/05/22 00:13:10;;;;;;;7.47;5.78;;;13.40;99.90;;;;;;2096241;28;20795;-71
2022/05/22 00:14:14;;;;;;;8.65;5.93;;;13.40;99.90;;;;;;2096189;28;20040;-70
2022/05/22 00:15:16;;;;;;;7.90;6.15;;;13.40;99.90;;;;;;2096225;28;20036;-71
2022/05/22 00:17:37;;;;;;;8.40;5.90;;;13.40;99.90;;;;;;2096219;28;20062;-71
2022/05/22 00:18:37;;;;;;;10.43;5.97;;;13.40;99.90;;;;;;2096374;28;20047;-71
2022/05/22 00:19:38;;;;;;;6.50;5.80;;;13.40;99.90;;;;;;2096522;28;20383;-71
2022/05/22 00:20:39;;;;;;;9.65;5.97;;;13.40;99.90;;;;;;2096441;28;20154;-71
2022/05/22 00:21:40;;;;;;;9.38;6.30;;;13.40;99.90;;;;;;2096555;28;20409;-72
2022/05/22 00:22:42;;;;;;;7.75;5.63;;;13.40;99.90;;;;;;2096575;28;20477;-70
2022/05/22 00:23:44;;;;;;;8.25;6.18;;;13.40;99.90;;;;;;2096562;28;20020;-71
2022/05/22 00:24:44;;;;;;;8.73;6.15;;;13.40;99.90;;;;;;2095684;28;20052;-71
2022/05/22 00:25:45;;;;;;;9.18;6.10;;;13.40;99.90;;;;;;2087463;28;20555;-71
2022/05/22 00:26:46;;;;;;;11.20;6.05;;;13.40;99.90;;;;;;2095702;28;20032;-71
2022/05/22 00:27:47;;;;;;;8.70;6.40;;;13.40;99.90;;;;;;2096242;28;20394;-70
2022/05/22 00:28:47;;;;;;;9.50;6.20;;;13.40;99.90;;;;;;2096299;28;20029;-71
2022/05/22 00:29:48;;;;;;;10.30;6.68;;;13.40;99.90;;;;;;2095561;28;20051;-71
2022/05/22 00:30:48;;;;;;;10.48;6.25;;;13.40;99.90;;;;;;2086870;28;20036;-71
2022/05/22 00:31:50;;;;;;;10.38;6.45;;;13.40;99.90;;;;;;2095441;28;20028;-71
2022/05/22 00:32:50;;;;;;;10.60;6.88;;;13.30;99.90;;;;;;2087474;28;20120;-71
2022/05/22 00:33:51;;;;;;;10.75;6.75;;;13.40;99.90;;;;;;2087640;28;20032;-71
2022/05/22 00:34:52;;;;;;;12.10;6.28;;;13.30;99.90;;;;;;2095831;28;20047;-72
2022/05/22 00:35:55;;;;;;;9.70;6.53;;;13.30;99.90;;;;;;2087965;28;20044;-71
2022/05/22 00:36:55;;;;;;;10.73;6.70;;;13.30;99.90;;;;;;2095804;28;20494;-71
2022/05/22 00:37:56;;;;;;;9.68;6.57;;;13.30;99.90;;;;;;2095646;28;20025;-71
2022/05/22 00:38:57;;;;;;;9.57;7.13;;;13.30;99.90;;;;;;2087687;28;20064;-70
2022/05/22 00:39:57;;;;;;;9.10;6.80;;;13.30;99.90;;;;;;2095862;28;20084;-72
2022/05/22 00:40:58;;;;;;;8.90;6.85;;;13.30;99.90;;;;;;2095904;28;20029;-71
2022/05/22 00:41:59;;;;;;;9.38;6.57;;;13.30;99.90;;;;;;2087887;28;20052;-71
2022/05/22 00:42:59;;;;;;;11.43;6.90;;;13.30;99.90;;;;;;2087838;28;20060;-71
2022/05/22 00:44:01;;;;;;;8.57;6.78;;;13.30;99.90;;;;;;2098352;28;20029;-71
2022/05/22 00:45:02;;;;;;;9.85;6.97;;;13.30;99.90;;;;;;2100392;28;20024;-72
2022/05/22 00:46:06;;;;;;;8.73;6.63;;;13.20;99.90;;;;;;2092243;28;20222;-72
2022/05/22 00:47:07;;;;;;;8.80;6.47;;;13.20;99.90;;;;;;2095364;28;20053;-72
2022/05/22 00:48:08;;;;;;;8.95;7.00;;;13.30;99.90;;;;;;2101053;28;20021;-71
2022/05/22 00:49:14;;;;;;;10.32;6.80;;;13.30;99.90;;;;;;2098920;28;20032;-71
2022/05/22 00:50:15;;;;;;;9.77;7.15;;;13.30;99.90;;;;;;2097515;28;20041;-71
2022/05/22 00:51:37;;;;;;;8.88;6.80;;;13.30;99.90;;;;;;2096915;28;20020;-70
2022/05/22 00:52:43;;;;;;;10.45;7.10;;;13.30;99.90;;;;;;2097648;28;20025;-71
2022/05/22 00:54:06;;;;;;;9.45;6.35;;;13.30;99.90;;;;;;2096410;28;20036;-71
2022/05/22 00:55:16;;;;;;;9.35;6.57;;;13.40;99.90;;;;;;2097450;28;20526;-71
2022/05/22 00:56:20;;;;;;;10.75;6.47;;;13.40;99.90;;;;;;2097432;28;20025;-71
2022/05/22 00:57:40;;;;;;;7.90;6.28;;;13.50;99.90;;;;;;2097150;28;20040;-72
2022/05/22 00:58:42;;;;;;;8.45;6.40;;;13.50;99.90;;;;;;2096710;28;20034;-71
2022/05/22 00:59:49;;;;;;;9.75;6.68;;;13.50;99.90;;;;;;2096562;28;20466;-72
2022/05/22 01:00:50;;;;;;;9.85;6.80;;;13.60;99.90;;;;;;2096506;28;20435;-72
2022/05/22 01:01:53;;;;;;;9.00;6.63;;;13.60;99.90;;;;;;2096649;28;20035;-72
2022/05/22 01:04:23;;;;;;;10.77;7.18;;;13.70;99.90;;;;;;2095974;28;20055;-71
2022/05/22 01:05:26;;;;;;;11.90;7.60;;;13.70;99.90;;;;;;2096079;28;20017;-71
2022/05/22 01:06:27;;;;;;;10.52;7.68;;;13.70;99.90;;;;;;2087603;28;20510;-71
2022/05/22 01:07:34;;;;;;;10.05;7.70;;;13.70;99.90;;;;;;2088507;28;20038;-71
2022/05/22 01:08:37;;;;;;;10.05;7.65;;;13.70;99.90;;;;;;2087944;28;20033;-71
2022/05/22 01:09:38;;;;;;;14.45;8.73;;;13.80;99.90;;;;;;2096051;28;20031;-71
2022/05/22 01:10:48;;;;;;;11.95;7.70;;;13.80;99.90;;;;;;2096043;28;20119;-72
2022/05/22 01:11:52;;;;;;;10.40;7.82;;;13.70;99.90;;;;;;2088216;28;20037;-71
2022/05/22 01:12:57;;;;;;;10.68;7.75;;;13.70;99.90;;;;;;2089317;28;20033;-71
2022/05/22 01:14:10;;;;;;;11.38;8.23;;;13.70;99.90;;;;;;2088594;28;20499;-72
2022/05/22 01:15:13;;;;;;;10.68;7.82;;;13.80;99.90;;;;;;2089434;28;20076;-71
2022/05/22 01:16:14;;;;;;;10.88;7.60;;;13.80;99.90;;;;;;2088229;28;20569;-71
2022/05/22 01:17:15;;;;;;;11.80;8.07;;;13.80;99.90;;;;;;2096731;28;20028;-71
2022/05/22 01:18:16;;;;;;;10.23;7.60;;;13.80;99.90;;;;;;2096683;28;20024;-70
2022/05/22 01:19:21;;;;;;;12.02;7.63;;;13.80;99.90;;;;;;2097170;28;20017;-71
2022/05/22 01:20:22;;;;;;;10.40;7.78;;;13.80;99.90;;;;;;2088300;28;20685;-70
2022/05/22 01:21:25;;;;;;;10.27;7.22;;;13.80;99.90;;;;;;2088997;28;20209;-71
2022/05/22 01:22:27;;;;;;;9.77;7.15;;;13.70;99.90;;;;;;2089579;28;20025;-71
2022/05/22 01:23:28;;;;;;;11.35;7.60;;;13.70;99.90;;;;;;2082015;28;20034;-71
2022/05/22 01:24:32;;;;;;;13.95;8.45;;;13.70;99.90;;;;;;2091306;28;20418;-71
2022/05/22 01:25:32;;;;;;;13.02;8.10;;;13.70;99.90;;;;;;2099021;28;20092;-71
2022/05/22 01:26:34;;;;;;;13.18;8.25;;;13.70;99.90;;;;;;2097697;28;20565;-71
2022/05/22 01:27:46;;;;;;;10.68;7.82;;;13.60;99.90;;;;;;2097149;28;20020;-71
2022/05/22 01:28:56;;;;;;;12.63;8.07;;;13.60;99.90;;;;;;2089173;28;20387;-70
2022/05/22 01:30:17;;;;;;;10.60;7.70;;;13.60;99.90;;;;;;2087620;28;20055;-71
2022/05/22 01:31:21;;;;;;;9.70;8.13;;;13.60;99.90;;;;;;2090978;28;20020;-71
2022/05/22 01:32:21;;;;;;;12.45;8.38;;;13.60;99.90;;;;;;2087465;28;20036;-71
2022/05/22 01:33:22;;;;;;;11.98;8.00;;;13.60;99.90;;;;;;2087445;28;20553;-71
2022/05/22 01:34:27;;;;;;;9.43;7.13;;;13.50;99.90;;;;;;2096057;28;20037;-71
2022/05/22 01:35:29;;;;;;;9.57;7.20;;;13.60;99.90;;;;;;2087634;28;20029;-71
2022/05/22 01:36:33;;;;;;;9.13;6.90;;;13.50;99.90;;;;;;2088101;28;20025;-71
2022/05/22 01:37:33;;;;;;;9.32;7.13;;;13.50;99.90;;;;;;2095815;28;20502;-70
2022/05/22 01:38:38;;;;;;;11.77;7.28;;;13.50;99.90;;;;;;2095697;28;20058;-71
2022/05/22 01:39:39;;;;;;;14.48;8.73;;;13.50;99.90;;;;;;2087391;28;20021;-71
2022/05/22 01:40:40;;;;;;;10.40;8.02;;;13.50;99.90;;;;;;2095814;28;20098;-72
2022/05/22 01:41:41;;;;;;;11.50;7.90;;;13.50;99.90;;;;;;2095690;28;20388;-71
2022/05/22 01:42:42;;;;;;;16.10;8.70;;;13.50;99.90;;;;;;2080239;28;20057;-71
2022/05/22 01:43:44;;;;;;;13.27;8.63;;;13.50;99.90;;;;;;2089036;28;20087;-71
2022/05/22 01:44:51;;;;;;;12.38;7.45;;;13.50;99.90;;;;;;2089576;28;20025;-71
2022/05/22 01:45:54;;;;;;;11.07;7.53;;;13.50;99.90;;;;;;2096996;28;20112;-71
2022/05/22 01:46:55;;;;;;;15.00;7.60;;;13.50;99.90;;;;;;2096826;28;20087;-71
2022/05/22 01:47:59;;;;;;;9.98;7.38;;;13.50;99.90;;;;;;2088712;28;20021;-71
2022/05/22 01:49:09;;;;;;;12.15;7.57;;;13.50;99.90;;;;;;2097093;28;20485;-71
2022/05/22 01:50:11;;;;;;;10.52;7.43;;;13.50;99.90;;;;;;2088618;28;20017;-71
2022/05/22 01:51:12;;;;;;;8.77;7.30;;;13.50;99.90;;;;;;2089151;28;20033;-71
2022/05/22 01:52:14;;;;;;;11.38;7.88;;;13.50;99.90;;;;;;2096960;28;20046;-71
2022/05/22 01:53:18;;;;;;;10.52;7.40;;;13.40;99.90;;;;;;2088892;28;20049;-71
2022/05/22 01:54:21;;;;;;;8.60;7.05;;;13.40;99.90;;;;;;2081694;28;20029;-72
2022/05/22 01:55:21;;;;;;;11.10;7.25;;;13.50;99.90;;;;;;2080638;28;20148;-71
2022/05/22 01:56:24;;;;;;;8.88;6.80;;;13.50;99.90;;;;;;2088998;28;20040;-70
2022/05/22 01:57:25;;;;;;;9.98;7.25;;;13.50;99.90;;;;;;2088635;28;20045;-71
2022/05/22 01:58:26;;;;;;;10.27;7.32;;;13.50;99.90;;;;;;2088732;28;20021;-71
2022/05/22 01:59:29;;;;;;;10.63;7.20;;;13.50;99.90;;;;;;2089268;28;20029;-71
2022/05/22 02:00:44;;;;;;;9.70;7.00;;;13.50;99.90;;;;;;2090651;28;20059;-71
2022/05/22 02:01:45;;;;;;;7.65;6.75;;;13.50;99.90;;;;;;2089036;28;20149;-71
2022/05/22 02:02:47;;;;;;;10.32;7.30;;;13.50;99.90;;;;;;2089076;28;20074;-71
2022/05/22 02:04:00;;;;;;;11.23;6.85;;;13.50;99.90;;;;;;2097267;28;20044;-71
2022/05/22 02:05:06;;;;;;;10.23;7.10;;;13.50;99.90;;;;;;2089609;28;20059;-71
2022/05/22 02:06:07;;;;;;;9.02;7.15;;;13.50;99.90;;;;;;2088975;28;20475;-70
2022/05/22 02:08:28;;;;;;;10.88;7.30;;;13.50;99.90;;;;;;2096922;28;20028;-71
2022/05/22 02:09:29;;;;;;;12.55;7.60;;;13.50;99.90;;;;;;2088901;28;20064;-71
2022/05/22 02:10:31;;;;;;;10.98;7.43;;;13.50;99.90;;;;;;2088779;28;20095;-72
2022/05/22 02:11:32;;;;;;;11.05;7.25;;;13.50;99.90;;;;;;2097030;28;20032;-71
2022/05/22 02:12:34;;;;;;;10.10;7.25;;;13.50;99.90;;;;;;2088885;28;20017;-71
2022/05/22 02:13:44;;;;;;;9.20;6.60;;;13.50;99.90;;;;;;2089140;28;20049;-71
2022/05/22 02:14:44;;;;;;;8.38;6.90;;;13.50;99.90;;;;;;2089620;28;20029;-71
2022/05/22 02:15:50;;;;;;;8.93;6.88;;;13.50;99.90;;;;;;2089070;28;20017;-72
2022/05/22 02:16:51;;;;;;;8.93;7.07;;;13.50;99.90;;;;;;2088705;28;20111;-71
2022/05/22 02:17:51;;;;;;;9.95;6.95;;;13.50;99.90;;;;;;2088709;28;20041;-72
2022/05/22 02:18:52;;;;;;;11.80;7.18;;;13.50;99.90;;;;;;2088840;28;20039;-71
2022/05/22 02:19:53;;;;;;;9.00;7.15;;;13.50;99.90;;;;;;2096955;28;20118;-71
2022/05/22 02:21:08;;;;;;;10.35;7.28;;;13.40;99.90;;;;;;2097041;28;20077;-71
2022/05/22 02:22:09;;;;;;;11.48;7.57;;;13.40;99.90;;;;;;2088662;28;20119;-70
2022/05/22 02:23:10;;;;;;;9.05;7.30;;;13.50;99.90;;;;;;2097067;28;20035;-71
2022/05/22 02:24:11;;;;;;;10.18;7.10;;;13.40;99.90;;;;;;2096991;28;20062;-71
2022/05/22 02:25:15;;;;;;;11.50;7.68;;;13.50;99.90;;;;;;2088518;28;20102;-72
2022/05/22 02:26:16;;;;;;;9.40;7.50;;;13.40;99.90;;;;;;2088955;28;20028;-72
2022/05/22 02:27:21;;;;;;;10.52;7.53;;;13.50;99.90;;;;;;2088950;28;20017;-70
2022/05/22 02:28:24;;;;;;;9.30;7.13;;;13.50;99.90;;;;;;2096718;28;20024;-71
2022/05/22 02:29:28;;;;;;;10.38;7.53;;;13.50;99.90;;;;;;2081071;28;20034;-71
2022/05/22 02:30:32;;;;;;;10.82;7.85;;;13.50;99.90;;;;;;2080381;28;20075;-71
2022/05/22 02:31:33;;;;;;;9.55;7.10;;;13.50;99.90;;;;;;2096925;28;20116;-70
2022/05/22 02:32:34;;;;;;;9.82;7.53;;;13.50;99.90;;;;;;2096848;28;20036;-71
2022/05/22 02:33:36;;;;;;;9.02;7.00;;;13.50;99.90;;;;;;2096954;28;20032;-71
2022/05/22 02:34:43;;;;;;;10.05;7.53;;;13.50;99.90;;;;;;2097466;28;20395;-70
2022/05/22 02:35:45;;;;;;;9.80;7.65;;;13.50;99.90;;;;;;2088516;28;20037;-71
2022/05/22 02:36:52;;;;;;;10.90;7.40;;;13.50;99.90;;;;;;2074070;28;20054;-71
2022/05/22 02:37:55;;;;;;;12.50;7.75;;;13.50;99.90;;;;;;2081052;28;20022;-71
2022/05/22 02:39:07;;;;;;;10.82;8.13;;;13.40;99.90;;;;;;2090326;28;20020;-71
2022/05/22 02:40:09;;;;;;;10.60;8.20;;;13.50;99.90;;;;;;2088538;28;20051;-71
2022/05/22 02:41:30;;;;;;;11.80;8.15;;;13.40;99.90;;;;;;2091021;28;20024;-71
2022/05/22 02:42:35;;;;;;;10.25;8.38;;;13.40;99.90;;;;;;2097341;28;20020;-71
2022/05/22 02:43:37;;;;;;;10.05;8.00;;;13.30;99.90;;;;;;2097029;28;20796;-70
2022/05/22 02:44:38;;;;;;;10.98;7.63;;;13.30;99.90;;;;;;2088825;28;20021;-72
2022/05/22 02:45:41;;;;;;;9.57;7.57;;;13.30;99.90;;;;;;2088691;28;20047;-71
2022/05/22 02:46:45;;;;;;;10.73;7.50;;;13.30;99.90;;;;;;2089070;28;20055;-71
2022/05/22 02:47:46;;;;;;;10.98;8.10;;;13.30;99.90;;;;;;2096461;28;20119;-70
2022/05/22 02:48:47;;;;;;;10.45;7.78;;;13.30;99.90;;;;;;2088225;28;20120;-71
2022/05/22 02:49:48;;;;;;;11.00;8.27;;;13.30;99.90;;;;;;2088257;28;20043;-70
2022/05/22 02:50:48;;;;;;;12.85;8.18;;;13.30;99.90;;;;;;2096350;28;20062;-71
2022/05/22 02:51:49;;;;;;;11.85;8.23;;;13.30;99.90;;;;;;2088428;28;20049;-71
2022/05/22 02:52:50;;;;;;;12.57;8.52;;;13.30;99.90;;;;;;2096788;28;20039;-71
2022/05/22 02:53:52;;;;;;;14.80;9.30;;;13.30;99.90;;;;;;2088186;28;20450;-71
2022/05/22 02:55:01;;;;;;;13.35;8.50;;;13.40;99.90;;;;;;2090348;28;20045;-71
2022/05/22 02:56:20;;;;;;;12.38;8.45;;;13.40;99.90;;;;;;2088940;28;20021;-71
2022/05/22 02:57:40;;;;;;;11.75;8.55;;;13.40;99.90;;;;;;2096797;28;20068;-71
2022/05/22 02:58:41;;;;;;;13.25;8.70;;;13.40;99.90;;;;;;2096268;28;20038;-71
2022/05/22 02:59:44;;;;;;;12.32;8.68;;;13.40;99.90;;;;;;2088143;28;20045;-70
2022/05/22 03:00:58;;;;;;;12.40;8.25;;;13.50;99.90;;;;;;2088226;28;20041;-71
2022/05/22 03:02:00;;;;;;;12.85;7.93;;;13.40;99.90;;;;;;2090158;28;20025;-71
2022/05/22 03:03:00;;;;;;;11.35;7.90;;;13.50;99.90;;;;;;2080148;28;20129;-71
2022/05/22 03:04:01;;;;;;;12.20;8.35;;;13.50;99.90;;;;;;2080123;28;20029;-72
2022/05/22 03:05:03;;;;;;;11.93;8.48;;;13.50;99.90;;;;;;2096689;28;20481;-72
2022/05/22 03:07:25;;;;;;;10.98;8.18;;;13.50;99.90;;;;;;2091090;28;20562;-71
2022/05/22 03:08:31;;;;;;;10.90;8.20;;;13.50;99.90;;;;;;2088340;28;20147;-70
2022/05/22 03:09:32;;;;;;;11.10;8.65;;;13.50;99.90;;;;;;2088785;28;20442;-71
2022/05/22 03:10:34;;;;;;;12.02;8.45;;;13.40;99.90;;;;;;2088186;28;20029;-71
2022/05/22 03:11:37;;;;;;;11.63;8.27;;;13.40;99.90;;;;;;2088378;28;20029;-70
2022/05/22 03:12:38;;;;;;;11.23;8.27;;;13.40;99.90;;;;;;2096629;28;20066;-71
2022/05/22 03:13:39;;;;;;;11.52;8.13;;;13.30;99.90;;;;;;2096584;28;20078;-71
2022/05/22 03:14:45;;;;;;;11.52;8.13;;;13.30;99.90;;;;;;2097951;28;20040;-71
2022/05/22 03:15:45;;;;;;;11.73;8.40;;;13.30;99.90;;;;;;2098182;28;20741;-72
2022/05/22 03:16:46;;;;;;;15.23;8.85;;;13.30;99.90;;;;;;2090128;28;20037;-71
2022/05/22 03:20:30;;;;;;;10.60;7.65;;;13.20;99.90;;;;;;2087672;28;20029;-70
2022/05/22 03:21:34;;;;;;;10.82;8.13;;;13.20;99.90;;;;;;2087742;28;20458;-70
2022/05/22 03:22:36;;;;;;;10.52;7.95;;;13.20;99.90;;;;;;2087398;28;20033;-71
2022/05/22 03:23:37;;;;;;;14.23;9.60;;;13.20;99.90;;;;;;2071324;28;20026;-71
2022/05/22 03:24:38;;;;;;;15.73;9.70;;;13.20;99.90;;;;;;2071286;28;20112;-72
2022/05/22 03:25:39;;;;;;;11.60;8.90;;;13.20;99.90;;;;;;2079341;28;20804;-71
2022/05/22 03:26:40;;;;;;;10.63;7.88;;;13.20;99.90;;;;;;2079492;28;20029;-72
2022/05/22 03:27:40;;;;;;;13.18;7.93;;;13.20;99.90;;;;;;2079283;28;20103;-71
2022/05/22 03:28:41;;;;;;;10.48;7.97;;;13.20;99.90;;;;;;2071228;28;20622;-72
2022/05/22 03:29:43;;;;;;;13.23;8.65;;;13.30;99.90;;;;;;2079407;28;20025;-72
2022/05/22 03:30:44;;;;;;;14.77;8.85;;;13.20;99.90;;;;;;2079466;28;20025;-72
2022/05/22 03:31:47;;;;;;;11.60;8.55;;;13.20;99.90;;;;;;2079484;28;20033;-71
2022/05/22 03:32:48;;;;;;;14.60;9.20;;;13.30;99.90;;;;;;2063174;28;20644;-72
2022/05/22 03:33:50;;;;;;;15.65;9.45;;;13.30;99.90;;;;;;2063279;28;20050;-71
2022/05/22 03:34:52;;;;;;;10.65;8.70;;;13.20;99.90;;;;;;2079675;28;20083;-72
2022/05/22 03:35:53;;;;;;;13.20;9.27;;;13.20;99.90;;;;;;2087619;28;20544;-72
2022/05/22 03:36:54;;;;;;;13.93;9.30;;;13.20;99.90;;;;;;2087564;28;20033;-71
2022/05/22 03:37:56;;;;;;;11.02;8.73;;;13.20;99.90;;;;;;2087438;28;20519;-71
2022/05/22 03:38:58;;;;;;;11.93;8.50;;;13.20;99.90;;;;;;2087029;28;20064;-71
2022/05/22 03:39:59;;;;;;;12.88;8.80;;;13.20;99.90;;;;;;2070869;28;20453;-72
2022/05/22 03:40:59;;;;;;;13.25;9.25;;;13.20;99.90;;;;;;2071079;28;20030;-69
2022/05/22 03:42:01;;;;;;;12.10;8.73;;;13.20;99.90;;;;;;2079030;28;20059;-71
2022/05/22 03:43:02;;;;;;;12.55;8.60;;;13.20;99.90;;;;;;2070854;28;20112;-71
2022/05/22 03:44:03;;;;;;;14.65;8.40;;;13.20;99.90;;;;;;2079224;28;20033;-69
2022/05/22 03:45:12;;;;;;;11.68;8.70;;;13.20;99.90;;;;;;2087518;28;20032;-71
2022/05/22 03:46:15;;;;;;;13.75;8.85;;;13.20;99.90;;;;;;2079379;28;20021;-70
2022/05/22 03:47:20;;;;;;;11.75;8.63;;;13.20;99.90;;;;;;2072223;28;20061;-71
2022/05/22 03:48:32;;;;;;;11.27;8.40;;;13.20;99.90;;;;;;2072633;28;20068;-71
2022/05/22 03:49:33;;;;;;;12.07;8.65;;;13.20;99.90;;;;;;2074411;28;20495;-70
2022/05/22 03:50:34;;;;;;;10.98;8.40;;;13.20;99.90;;;;;;2088109;28;20033;-70
2022/05/22 03:51:35;;;;;;;13.85;9.68;;;13.20;99.90;;;;;;2087948;28;20399;-69
2022/05/22 03:52:39;;;;;;;12.93;9.48;;;13.20;99.90;;;;;;2088375;28;20040;-70
2022/05/22 03:53:43;;;;;;;12.98;9.07;;;13.10;99.90;;;;;;2096601;28;20795;-72
2022/05/22 03:54:53;;;;;;;12.70;9.00;;;13.10;99.90;;;;;;2089783;28;20136;-71
2022/05/22 03:55:55;;;;;;;12.07;8.88;;;13.10;99.90;;;;;;2088415;28;20136;-71
2022/05/22 03:57:01;;;;;;;14.73;9.00;;;13.10;99.90;;;;;;2096436;28;20063;-71
2022/05/22 03:58:06;;;;;;;10.68;8.43;;;13.10;99.90;;;;;;2096103;28;20028;-71
2022/05/22 03:59:08;;;;;;;11.80;9.02;;;13.10;99.90;;;;;;2087996;28;20539;-70
2022/05/22 04:00:10;;;;;;;14.63;9.50;;;13.20;99.90;;;;;;2096204;28;20016;-70
2022/05/22 04:01:16;;;;;;;12.60;8.52;;;13.10;99.90;;;;;;2097055;28;20028;-70
2022/05/22 04:02:25;;;;;;;12.48;8.48;;;13.20;99.90;;;;;;2096343;28;20479;-71
2022/05/22 04:03:26;;;;;;;11.70;9.00;;;13.20;99.90;;;;;;2096246;28;20028;-70
2022/05/22 04:04:30;;;;;;;15.23;9.35;;;13.20;99.90;;;;;;2096254;28;20070;-70
2022/05/22 04:05:34;;;;;;;13.13;9.13;;;13.20;99.90;;;;;;2095760;28;20023;-71
2022/05/22 04:06:37;;;;;;;13.65;9.07;;;13.20;99.90;;;;;;2087857;28;20058;-71
2022/05/22 04:07:44;;;;;;;13.13;8.90;;;13.30;99.90;;;;;;2087927;28;20036;-71
2022/05/22 04:08:44;;;;;;;13.20;9.20;;;13.20;99.90;;;;;;2089018;28;20037;-71
2022/05/22 04:09:45;;;;;;;11.60;8.65;;;13.20;99.90;;;;;;2088065;28;20739;-70
2022/05/22 04:11:15;;;;;;;12.90;8.93;;;13.20;99.90;;;;;;2090682;28;20060;-71
2022/05/22 04:12:19;;;;;;;12.00;8.90;;;13.20;99.90;;;;;;2089811;28;20068;-71
2022/05/22 04:13:24;;;;;;;10.95;8.63;;;13.20;99.90;;;;;;2088583;28;20029;-70
2022/05/22 04:14:25;;;;;;;11.98;8.77;;;13.30;99.90;;;;;;2088028;28;20512;-71
2022/05/22 04:15:35;;;;;;;10.20;8.73;;;13.20;99.90;;;;;;2089659;28;20037;-70
2022/05/22 04:16:38;;;;;;;12.50;9.63;;;13.30;99.90;;;;;;2088236;28;20025;-70
2022/05/22 04:17:40;;;;;;;13.90;9.48;;;13.30;99.90;;;;;;2087620;28;20119;-70
2022/05/22 04:18:52;;;;;;;16.17;9.20;;;13.30;99.90;;;;;;2089369;28;20075;-70
2022/05/22 04:19:52;;;;;;;12.10;8.95;;;13.30;99.90;;;;;;2087977;28;20102;-70
2022/05/22 04:20:55;;;;;;;12.70;9.43;;;13.40;99.90;;;;;;2087942;28;20136;-70
2022/05/22 04:22:22;;;;;;;11.95;8.95;;;13.40;99.90;;;;;;2091402;28;20078;-70
2022/05/22 04:26:04;;;;;;;12.85;8.25;;;13.50;99.90;;;;;;2095750;28;20669;-70
2022/05/22 04:27:06;;;;;;;12.23;8.52;;;13.60;99.90;;;;;;2095420;28;20028;-69
2022/05/22 04:28:06;;;;;;;11.48;8.40;;;13.60;99.90;;;;;;2086803;28;20025;-70
2022/05/22 04:29:08;;;;;;;12.18;8.80;;;13.70;99.90;;;;;;2087252;28;20084;-70
2022/05/22 04:30:17;;;;;;;12.77;8.88;;;13.70;99.90;;;;;;2095288;28;20024;-70
2022/05/22 04:31:20;;;;;;;10.63;8.57;;;13.80;99.90;;;;;;2096079;28;20028;-70
2022/05/22 04:32:56;;;;;;;14.40;9.32;;;14.00;99.90;;;;;;2079189;28;20025;-70
2022/05/22 04:33:57;;;;;;;11.43;8.43;;;14.10;99.90;;;;;;2095245;28;20024;-69
2022/05/22 04:34:57;;;;;;;13.48;8.48;;;14.20;99.90;;;;;;2087055;28;20096;-70
2022/05/22 04:36:00;;;;;;;12.77;8.73;;;14.30;99.90;;;;;;2095328;28;20024;-70
2022/05/22 04:37:01;;;;;;;11.95;8.50;;;14.40;99.90;;;;;;2095418;28;20016;-70
2022/05/22 04:38:14;;;;;;;12.43;8.10;;;14.60;99.90;;;;;;2095165;28;20631;-70
2022/05/22 04:39:15;;;;;;;11.93;8.15;;;14.80;99.90;;;;;;2087189;28;20526;-70
2022/05/22 04:40:29;;;;;;;12.70;8.15;;;15.00;99.90;;;;;;2088746;28;20512;-70
2022/05/22 04:41:29;;;;;;;10.43;7.30;;;15.20;99.90;;;;;;2095442;28;20021;-70
2022/05/22 04:42:36;;;;;;;10.10;7.55;;;15.50;99.90;;;;;;2095311;28;20499;-70
2022/05/22 04:43:38;;;;;;;11.27;8.40;;;15.80;99.90;;;;;;2087936;28;20036;-70
2022/05/22 04:44:38;;;;;;;11.20;8.00;;;15.90;99.90;;;;;;2095520;28;20468;-70
2022/05/22 04:45:58;;;;;;;13.23;8.15;;;16.20;99.90;;;;;;2096208;28;20449;-70
2022/05/22 04:47:01;;;;;;;11.43;7.50;;;16.50;99.90;;;;;;2095277;28;20636;-70
2022/05/22 04:48:01;;;;;;;11.57;8.07;;;16.80;99.90;;;;;;2095105;28;20025;-70
2022/05/22 04:49:09;;;;;;;9.45;7.35;;;16.90;99.90;;;;;;2086998;28;20021;-70
2022/05/22 04:50:13;;;;;;;12.32;8.15;;;17.10;99.90;;;;;;2093769;28;20019;-70
2022/05/22 04:51:37;;;;;;;11.95;8.07;;;17.10;99.90;;;;;;2105695;28;20039;-70
2022/05/22 04:52:44;;;;;;;10.95;8.20;;;17.10;99.90;;;;;;2106574;28;20036;-70
2022/05/22 04:53:45;;;;;;;12.15;8.00;;;17.00;99.90;;;;;;2098663;28;20056;-71
2022/05/22 04:55:05;;;;;;;12.40;8.00;;;16.90;99.90;;;;;;2100964;28;20043;-71
2022/05/22 04:56:06;;;;;;;11.40;8.15;;;16.80;99.90;;;;;;2090207;28;20024;-70
2022/05/22 04:57:14;;;;;;;12.23;7.80;;;16.70;99.90;;;;;;2098861;28;20025;-70
2022/05/22 04:58:16;;;;;;;9.70;7.60;;;16.70;99.90;;;;;;2105793;28;20033;-71
2022/05/22 04:59:17;;;;;;;11.13;7.15;;;16.80;99.90;;;;;;2100163;28;20021;-70
2022/05/22 05:00:18;;;;;;;11.30;7.53;;;17.00;99.90;;;;;;2096381;28;20074;-71
2022/05/22 05:01:30;;;;;;;12.73;7.65;;;17.10;99.90;;;;;;2095632;28;20028;-70
2022/05/22 05:02:41;;;;;;;13.30;8.45;;;17.20;99.90;;;;;;2088565;28;20060;-70
2022/05/22 05:03:41;;;;;;;11.38;7.15;;;17.20;99.90;;;;;;2087367;28;20096;-70
2022/05/22 05:04:42;;;;;;;12.05;7.40;;;17.30;99.90;;;;;;2095862;28;20021;-70
2022/05/22 05:05:56;;;;;;;9.43;7.32;;;17.30;99.90;;;;;;2096096;28;20115;-70
2022/05/22 05:06:58;;;;;;;12.20;7.70;;;17.50;99.90;;;;;;2087952;28;20029;-70
2022/05/22 05:08:17;;;;;;;11.30;7.95;;;17.60;99.90;;;;;;2095629;28;20487;-70
2022/05/22 05:09:27;;;;;;;14.38;8.82;;;17.60;99.90;;;;;;2095655;28;20040;-71
2022/05/22 05:10:27;;;;;;;9.75;7.60;;;17.60;99.90;;;;;;2087313;28;20138;-72
2022/05/22 05:11:33;;;;;;;12.50;8.35;;;17.40;99.90;;;;;;2095904;28;20687;-70
2022/05/22 05:12:41;;;;;;;11.82;7.82;;;17.50;99.90;;;;;;2095851;28;20032;-70
2022/05/22 05:13:41;;;;;;;13.57;8.00;;;17.50;99.90;;;;;;2087668;28;20400;-70
2022/05/22 05:14:45;;;;;;;9.10;6.85;;;17.70;99.90;;;;;;2087368;28;20036;-70
2022/05/22 05:15:56;;;;;;;11.40;7.40;;;17.80;99.90;;;;;;2087601;28;20044;-70
2022/05/22 05:17:00;;;;;;;8.75;6.60;;;17.90;99.90;;;;;;2095864;28;20020;-71
2022/05/22 05:18:02;;;;;;;9.63;6.60;;;18.00;99.90;;;;;;2089326;28;20053;-71
2022/05/22 05:19:03;;;;;;;12.35;7.72;;;18.00;99.90;;;;;;2080914;28;20093;-70
2022/05/22 05:20:07;;;;;;;12.93;8.13;;;17.90;99.90;;;;;;2097632;28;20035;-71
2022/05/22 05:21:21;;;;;;;13.27;8.05;;;17.60;99.90;;;;;;2097483;28;20044;-70
2022/05/22 05:22:30;;;;;;;12.00;7.60;;;17.10;99.90;;;;;;2089349;28;20078;-70
2022/05/22 05:23:40;;;;;;;11.07;7.28;;;16.80;99.90;;;;;;2097372;28;20416;-70
2022/05/22 05:24:51;;;;;;;11.23;8.23;;;16.60;99.90;;;;;;2090268;28;20033;-69
2022/05/22 05:25:51;;;;;;;9.50;7.22;;;16.50;99.90;;;;;;2088652;28;20029;-71
2022/05/22 05:26:54;;;;;;;12.80;7.82;;;16.60;99.90;;;;;;2096869;28;20059;-68
2022/05/22 05:27:55;;;;;;;16.38;8.70;;;16.80;99.90;;;;;;2088654;28;20106;-69
2022/05/22 05:28:56;;;;;;;15.32;9.00;;;17.00;99.90;;;;;;2088457;28;20742;-69
2022/05/22 05:30:04;;;;;;;11.45;7.63;;;17.10;99.90;;;;;;2089164;28;20036;-69
2022/05/22 05:31:07;;;;;;;10.90;7.38;;;17.40;99.90;;;;;;2089063;28;20052;-70
2022/05/22 05:32:11;;;;;;;11.13;7.63;;;17.80;99.90;;;;;;2088931;28;20108;-69
2022/05/22 05:33:12;;;;;;;9.10;6.20;;;18.00;99.90;;;;;;2088473;28;20053;-69
2022/05/22 05:34:31;;;;;;;8.85;6.28;;;18.40;99.90;;;;;;2097041;28;20115;-69
2022/05/22 05:35:46;;;;;;;8.40;5.75;;;18.90;99.90;;;;;;2096555;28;20034;-69
2022/05/22 05:36:59;;;;;;;12.00;7.30;;;19.40;98.90;;;;;;2096799;28;20025;-69
2022/05/22 05:38:03;;;;;;;15.13;7.60;;;19.60;96.60;;;;;;2097265;28;20044;-69
2022/05/22 05:39:04;;;;;;;12.13;7.65;;;19.60;94.90;;;;;;2096719;28;20102;-69
2022/05/22 05:40:19;;;;;;;10.07;7.07;;;19.50;94.00;;;;;;2090388;28;20656;-69
2022/05/22 05:41:19;;;;;;;9.43;7.35;;;19.30;94.60;;;;;;2097657;28;20490;-70
2022/05/22 05:42:22;;;;;;;10.57;7.43;;;19.50;94.70;;;;;;2097826;28;20092;-69